createdAt,value
2024-02-02T00:00:42.206Z,4.74
2024-02-02T00:01:48.167Z,4.75
2024-02-02T00:02:42.178Z,4.77
2024-02-02T00:03:42.363Z,4.77
2024-02-02T00:04:42.306Z,4.78
2024-02-02T00:05:42.378Z,4.80
2024-02-02T00:06:42.627Z,4.77
2024-02-02T00:07:42.544Z,4.82
2024-02-02T00:08:42.629Z,4.78
2024-02-02T00:09:42.718Z,4.80
2024-02-02T00:10:42.815Z,4.78
2024-02-02T00:11:42.867Z,4.82
2024-02-02T00:12:42.930Z,4.80
2024-02-02T00:13:43.050Z,4.84
2024-02-02T00:14:43.147Z,4.84
2024-02-02T00:15:43.208Z,4.84
2024-02-02T00:16:43.277Z,4.84
2024-02-02T00:17:43.409Z,4.84
2024-02-02T00:18:43.563Z,4.82
2024-02-02T00:19:43.595Z,4.82
2024-02-02T00:20:43.650Z,4.84
2024-02-02T00:21:43.732Z,4.86
2024-02-02T00:22:43.811Z,4.82
2024-02-02T00:23:43.897Z,4.86
2024-02-02T00:24:43.957Z,4.86
2024-02-02T00:25:44.052Z,4.86
2024-02-02T00:26:44.091Z,4.86
2024-02-02T00:27:44.189Z,4.86
2024-02-02T00:28:44.257Z,4.84
2024-02-02T00:29:44.357Z,4.86
2024-02-02T00:30:44.450Z,4.87
2024-02-02T00:31:44.535Z,4.87
2024-02-02T00:32:44.645Z,4.87
2024-02-02T00:33:44.748Z,4.89
2024-02-02T00:34:44.884Z,4.89
2024-02-02T00:35:44.836Z,4.89
2024-02-02T00:36:44.894Z,4.89
2024-02-02T00:37:44.994Z,4.89
2024-02-02T00:38:45.083Z,4.89
2024-02-02T00:39:45.149Z,4.87
2024-02-02T00:40:45.251Z,4.86
2024-02-02T00:41:45.303Z,4.89
2024-02-02T00:42:45.388Z,4.89
2024-02-02T00:43:45.478Z,4.90
2024-02-02T00:44:45.560Z,4.89
2024-02-02T00:45:45.695Z,4.92
2024-02-02T00:46:45.745Z,4.90
2024-02-02T00:47:45.870Z,4.89
2024-02-02T00:48:46.018Z,4.92
2024-02-02T00:49:46.042Z,4.92
2024-02-02T00:50:46.064Z,4.92
2024-02-02T00:51:46.174Z,4.92
2024-02-02T00:52:46.228Z,4.92
2024-02-02T00:53:46.347Z,4.92
2024-02-02T00:54:46.418Z,4.90
2024-02-02T00:55:46.523Z,4.92
2024-02-02T00:56:46.728Z,4.93
2024-02-02T00:57:46.751Z,4.92
2024-02-02T00:58:46.774Z,4.93
2024-02-02T00:59:46.863Z,4.94
2024-02-02T01:00:47.023Z,4.96
2024-02-02T01:01:47.041Z,4.97
2024-02-02T01:02:47.099Z,4.97
2024-02-02T01:03:47.243Z,4.99
2024-02-02T01:04:47.347Z,5.00
2024-02-02T01:05:47.403Z,5.04
2024-02-02T01:06:47.524Z,5.02
2024-02-02T01:07:47.453Z,5.02
2024-02-02T01:08:47.636Z,5.00
2024-02-02T01:09:47.626Z,4.99
2024-02-02T01:10:47.740Z,4.99
2024-02-02T01:11:47.846Z,4.97
2024-02-02T01:12:47.925Z,4.97
2024-02-02T01:13:47.973Z,4.96
2024-02-02T01:14:48.050Z,4.96
2024-02-02T01:15:48.119Z,4.96
2024-02-02T01:16:48.225Z,4.96
2024-02-02T01:17:48.340Z,4.97
2024-02-02T01:18:48.435Z,4.97
2024-02-02T01:19:48.454Z,4.99
2024-02-02T01:20:48.490Z,4.99
2024-02-02T01:21:48.587Z,4.97
2024-02-02T01:22:48.666Z,4.99
2024-02-02T01:23:48.746Z,5.02
2024-02-02T01:24:48.814Z,5.08
2024-02-02T01:25:48.879Z,5.10
2024-02-02T01:26:49.024Z,5.11
2024-02-02T01:27:49.066Z,5.12
2024-02-02T01:28:49.118Z,5.14
2024-02-02T01:29:49.212Z,5.15
2024-02-02T01:30:49.235Z,5.14
2024-02-02T01:31:49.362Z,5.14
2024-02-02T01:32:49.563Z,5.15
2024-02-02T01:33:49.653Z,5.12
2024-02-02T01:34:49.763Z,5.15
2024-02-02T01:35:49.706Z,5.12
2024-02-02T01:36:49.749Z,5.12
2024-02-02T01:37:49.802Z,5.12
2024-02-02T01:38:49.911Z,5.12
2024-02-02T01:39:49.997Z,5.12
2024-02-02T01:40:50.085Z,5.11
2024-02-02T01:41:50.317Z,5.11
2024-02-02T01:42:50.276Z,5.10
2024-02-02T01:43:50.327Z,5.10
2024-02-02T01:44:50.452Z,5.10
2024-02-02T01:45:50.498Z,5.11
2024-02-02T01:46:50.621Z,5.10
2024-02-02T01:47:50.781Z,5.11
2024-02-02T01:48:50.833Z,5.12
2024-02-02T01:49:50.898Z,5.14
2024-02-02T01:50:50.987Z,5.12
2024-02-02T01:51:51.029Z,5.14
2024-02-02T01:52:51.095Z,5.12
2024-02-02T01:53:51.208Z,5.14
2024-02-02T01:54:51.273Z,5.14
2024-02-02T01:55:51.388Z,5.14
2024-02-02T01:56:51.459Z,5.15
2024-02-02T01:57:51.562Z,5.18
2024-02-02T01:58:51.642Z,5.18
2024-02-02T01:59:51.796Z,5.21
2024-02-02T02:00:51.846Z,5.21
2024-02-02T02:01:51.885Z,5.23
2024-02-02T02:02:52.076Z,5.20
2024-02-02T02:03:52.143Z,5.21
2024-02-02T02:04:52.127Z,5.23
2024-02-02T02:05:52.282Z,5.23
2024-02-02T02:06:52.296Z,5.23
2024-02-02T02:07:52.369Z,5.23
2024-02-02T02:08:52.481Z,5.23
2024-02-02T02:09:52.533Z,5.23
2024-02-02T02:10:52.624Z,5.23
2024-02-02T02:11:52.802Z,5.25
2024-02-02T02:12:52.796Z,5.23
2024-02-02T02:13:52.909Z,5.25
2024-02-02T02:14:53.026Z,5.25
2024-02-02T02:15:53.078Z,5.25
2024-02-02T02:16:53.193Z,5.26
2024-02-02T02:17:53.705Z,5.25
2024-02-02T02:18:59.287Z,5.25
2024-02-02T02:19:53.560Z,5.25
2024-02-02T02:20:53.577Z,5.26
2024-02-02T02:21:53.642Z,5.26
2024-02-02T02:22:53.734Z,5.28
2024-02-02T02:23:53.861Z,5.26
2024-02-02T02:24:53.903Z,5.26
2024-02-02T02:25:54.005Z,5.26
2024-02-02T02:26:54.059Z,5.25
2024-02-02T02:27:54.148Z,5.25
2024-02-02T02:28:54.244Z,5.25
2024-02-02T02:29:54.340Z,5.26
2024-02-02T02:30:54.368Z,5.26
2024-02-02T02:31:54.576Z,5.28
2024-02-02T02:32:54.629Z,5.28
2024-02-02T02:33:54.802Z,5.26
2024-02-02T02:34:54.732Z,5.26
2024-02-02T02:35:54.865Z,5.26
2024-02-02T02:36:54.924Z,5.29
2024-02-02T02:37:54.962Z,5.28
2024-02-02T02:38:55.086Z,5.28
2024-02-02T02:39:55.156Z,5.28
2024-02-02T02:40:55.248Z,5.26
2024-02-02T02:41:55.367Z,5.26
2024-02-02T02:42:55.399Z,5.28
2024-02-02T02:43:55.545Z,5.30
2024-02-02T02:44:55.791Z,5.32
2024-02-02T02:45:55.647Z,5.33
2024-02-02T02:46:55.750Z,5.35
2024-02-02T02:47:56.089Z,5.33
2024-02-02T02:48:56.158Z,5.35
2024-02-02T02:49:55.958Z,5.33
2024-02-02T02:50:56.054Z,5.33
2024-02-02T02:51:56.137Z,5.33
2024-02-02T02:52:56.215Z,5.35
2024-02-02T02:53:56.361Z,5.35
2024-02-02T02:54:56.391Z,5.35
2024-02-02T02:55:56.493Z,5.35
2024-02-02T02:56:56.580Z,5.38
2024-02-02T02:57:56.626Z,5.38
2024-02-02T02:58:56.725Z,5.38
2024-02-02T02:59:56.854Z,5.36
2024-02-02T03:00:56.933Z,5.38
2024-02-02T03:01:56.947Z,5.38
2024-02-02T03:02:57.063Z,5.39
2024-02-02T03:03:57.190Z,5.39
2024-02-02T03:04:57.204Z,5.39
2024-02-02T03:05:57.340Z,5.43
2024-02-02T03:06:57.449Z,5.44
2024-02-02T03:07:57.434Z,5.44
2024-02-02T03:08:57.511Z,5.46
2024-02-02T03:09:57.599Z,5.43
2024-02-02T03:10:57.660Z,5.46
2024-02-02T03:11:57.781Z,5.44
2024-02-02T03:12:57.859Z,5.46
2024-02-02T03:13:57.920Z,5.46
2024-02-02T03:14:58.043Z,5.46
2024-02-02T03:15:58.137Z,5.44
2024-02-02T03:16:58.201Z,5.46
2024-02-02T03:17:58.349Z,5.44
2024-02-02T03:18:58.560Z,5.46
2024-02-02T03:19:58.554Z,5.46
2024-02-02T03:20:58.587Z,5.47
2024-02-02T03:21:58.591Z,5.46
2024-02-02T03:22:58.709Z,5.46
2024-02-02T03:23:58.765Z,5.46
2024-02-02T03:24:58.889Z,5.46
2024-02-02T03:25:58.931Z,5.44
2024-02-02T03:26:59.026Z,5.46
2024-02-02T03:27:59.046Z,5.47
2024-02-02T03:28:59.142Z,5.47
2024-02-02T03:29:59.228Z,5.46
2024-02-02T03:30:59.318Z,5.47
2024-02-02T03:31:59.404Z,5.46
2024-02-02T03:32:59.576Z,5.47
2024-02-02T03:33:59.709Z,5.47
2024-02-02T03:34:59.674Z,5.47
2024-02-02T03:35:59.811Z,5.47
2024-02-02T03:36:59.847Z,5.46
2024-02-02T03:37:59.944Z,5.47
2024-02-02T03:39:00.055Z,5.46
2024-02-02T03:40:00.176Z,5.46
2024-02-02T03:41:00.205Z,5.43
2024-02-02T03:42:00.352Z,5.44
2024-02-02T03:43:00.445Z,5.43
2024-02-02T03:44:00.508Z,5.44
2024-02-02T03:45:00.621Z,5.39
2024-02-02T03:46:00.650Z,5.43
2024-02-02T03:47:00.763Z,5.43
2024-02-02T03:48:01.015Z,5.43
2024-02-02T03:49:01.067Z,5.43
2024-02-02T03:50:01.158Z,5.43
2024-02-02T03:51:01.263Z,5.43
2024-02-02T03:52:01.238Z,5.41
2024-02-02T03:53:01.330Z,5.38
2024-02-02T03:54:01.471Z,5.39
2024-02-02T03:55:01.566Z,5.38
2024-02-02T03:56:01.558Z,5.38
2024-02-02T03:57:01.656Z,5.38
2024-02-02T03:58:01.717Z,5.38
2024-02-02T03:59:01.759Z,5.36
2024-02-02T04:00:02.046Z,5.35
2024-02-02T04:01:01.978Z,5.35
2024-02-02T04:02:02.012Z,5.32
2024-02-02T04:03:02.215Z,5.32
2024-02-02T04:04:02.373Z,5.32
2024-02-02T04:05:02.338Z,5.32
2024-02-02T04:06:02.440Z,5.32
2024-02-02T04:07:02.437Z,5.30
2024-02-02T04:08:02.533Z,5.30
2024-02-02T04:09:02.631Z,5.32
2024-02-02T04:10:02.854Z,5.30
2024-02-02T04:11:02.785Z,5.30
2024-02-02T04:12:02.900Z,5.29
2024-02-02T04:13:02.944Z,5.29
2024-02-02T04:14:03.118Z,5.28
2024-02-02T04:15:03.164Z,5.28
2024-02-02T04:16:03.193Z,5.28
2024-02-02T04:17:03.269Z,5.28
2024-02-02T04:18:03.389Z,5.26
2024-02-02T04:19:03.499Z,5.26
2024-02-02T04:20:03.547Z,5.26
2024-02-02T04:21:03.607Z,5.26
2024-02-02T04:22:03.676Z,5.25
2024-02-02T04:23:03.767Z,5.25
2024-02-02T04:24:03.954Z,5.25
2024-02-02T04:25:03.980Z,5.25
2024-02-02T04:26:04.021Z,5.26
2024-02-02T04:27:04.126Z,5.25
2024-02-02T04:28:04.161Z,5.25
2024-02-02T04:29:04.229Z,5.25
2024-02-02T04:30:04.369Z,5.25
2024-02-02T04:31:04.426Z,5.23
2024-02-02T04:32:04.504Z,5.26
2024-02-02T04:33:04.682Z,5.25
2024-02-02T04:34:04.854Z,5.26
2024-02-02T04:35:04.783Z,5.26
2024-02-02T04:36:04.947Z,5.25
2024-02-02T04:37:04.990Z,5.28
2024-02-02T04:38:05.079Z,5.26
2024-02-02T04:39:05.173Z,5.26
2024-02-02T04:40:05.210Z,5.28
2024-02-02T04:41:05.326Z,5.28
2024-02-02T04:42:05.398Z,5.29
2024-02-02T04:43:05.482Z,5.30
2024-02-02T04:44:05.530Z,5.32
2024-02-02T04:45:05.671Z,5.30
2024-02-02T04:46:05.676Z,5.32
2024-02-02T04:47:05.780Z,5.36
2024-02-02T04:48:05.978Z,5.36
2024-02-02T04:49:06.046Z,5.33
2024-02-02T04:50:06.043Z,5.35
2024-02-02T04:51:06.168Z,5.35
2024-02-02T04:52:06.206Z,5.35
2024-02-02T04:53:06.296Z,5.35
2024-02-02T04:54:06.431Z,5.35
2024-02-02T04:55:06.465Z,5.36
2024-02-02T04:56:06.545Z,5.33
2024-02-02T04:57:06.621Z,5.35
2024-02-02T04:58:06.975Z,5.33
2024-02-02T04:59:06.795Z,5.35
2024-02-02T05:00:06.948Z,5.35
2024-02-02T05:01:06.944Z,5.36
2024-02-02T05:02:07.153Z,5.38
2024-02-02T05:03:07.228Z,5.38
2024-02-02T05:04:07.250Z,5.41
2024-02-02T05:05:07.308Z,5.41
2024-02-02T05:06:07.429Z,5.44
2024-02-02T05:07:07.465Z,5.47
2024-02-02T05:08:07.645Z,5.48
2024-02-02T05:09:07.687Z,5.50
2024-02-02T05:10:07.696Z,5.50
2024-02-02T05:11:07.806Z,5.51
2024-02-02T05:12:07.897Z,5.50
2024-02-02T05:13:07.928Z,5.51
2024-02-02T05:14:08.038Z,5.53
2024-02-02T05:15:08.179Z,5.53
2024-02-02T05:16:08.181Z,5.54
2024-02-02T05:17:08.273Z,5.56
2024-02-02T05:18:08.802Z,5.61
2024-02-02T05:19:08.488Z,5.64
2024-02-02T05:20:08.486Z,5.64
2024-02-02T05:21:08.617Z,5.62
2024-02-02T05:22:08.682Z,5.64
2024-02-02T05:23:08.714Z,5.62
2024-02-02T05:24:21.843Z,5.64
2024-02-02T05:25:08.988Z,5.65
2024-02-02T05:26:09.024Z,5.66
2024-02-02T05:27:09.128Z,5.68
2024-02-02T05:28:09.155Z,5.69
2024-02-02T05:29:09.254Z,5.69
2024-02-02T05:30:09.325Z,5.75
2024-02-02T05:31:09.402Z,5.79
2024-02-02T05:32:09.495Z,5.80
2024-02-02T05:33:09.754Z,5.83
2024-02-02T05:34:09.848Z,5.83
2024-02-02T05:35:09.776Z,5.87
2024-02-02T05:36:09.843Z,5.87
2024-02-02T05:37:09.926Z,5.86
2024-02-02T05:38:09.969Z,5.89
2024-02-02T05:39:10.126Z,5.93
2024-02-02T05:40:10.152Z,5.98
2024-02-02T05:41:10.259Z,5.97
2024-02-02T05:42:10.359Z,5.94
2024-02-02T05:43:10.419Z,5.93
2024-02-02T05:44:10.478Z,5.91
2024-02-02T05:45:10.649Z,5.89
2024-02-02T05:46:10.727Z,5.87
2024-02-02T05:47:10.769Z,5.87
2024-02-02T05:48:11.039Z,5.87
2024-02-02T05:49:10.953Z,5.89
2024-02-02T05:50:11.014Z,5.91
2024-02-02T05:51:11.152Z,5.97
2024-02-02T05:52:11.223Z,5.99
2024-02-02T05:53:11.225Z,5.99
2024-02-02T05:54:11.338Z,5.98
2024-02-02T05:55:11.372Z,5.94
2024-02-02T05:56:11.433Z,5.93
2024-02-02T05:57:11.575Z,5.93
2024-02-02T05:58:11.593Z,5.91
2024-02-02T05:59:11.689Z,5.90
2024-02-02T06:00:11.815Z,5.93
2024-02-02T06:01:11.854Z,5.97
2024-02-02T06:02:11.945Z,5.97
2024-02-02T06:03:12.060Z,5.98
2024-02-02T06:04:12.166Z,5.98
2024-02-02T06:05:12.221Z,5.97
2024-02-02T06:06:12.410Z,5.98
2024-02-02T06:07:12.532Z,5.98
2024-02-02T06:08:12.433Z,6.01
2024-02-02T06:09:12.721Z,5.99
2024-02-02T06:10:12.631Z,5.94
2024-02-02T06:11:12.683Z,5.94
2024-02-02T06:12:12.802Z,5.94
2024-02-02T06:13:12.872Z,5.93
2024-02-02T06:14:12.966Z,5.91
2024-02-02T06:15:13.040Z,5.91
2024-02-02T06:16:13.118Z,5.91
2024-02-02T06:17:13.212Z,5.90
2024-02-02T06:18:13.379Z,5.89
2024-02-02T06:19:13.379Z,5.87
2024-02-02T06:20:13.406Z,5.90
2024-02-02T06:21:13.506Z,5.90
2024-02-02T06:22:13.540Z,5.91
2024-02-02T06:23:13.629Z,5.91
2024-02-02T06:24:13.885Z,5.91
2024-02-02T06:25:13.788Z,5.90
2024-02-02T06:26:13.893Z,5.89
2024-02-02T06:27:13.984Z,5.89
2024-02-02T06:28:14.019Z,5.91
2024-02-02T06:29:14.160Z,5.93
2024-02-02T06:30:14.212Z,5.97
2024-02-02T06:31:14.299Z,5.97
2024-02-02T06:32:14.367Z,5.97
2024-02-02T06:33:14.685Z,5.98
2024-02-02T06:34:14.733Z,5.97
2024-02-02T06:35:14.711Z,5.98
2024-02-02T06:36:14.733Z,5.97
2024-02-02T06:37:14.762Z,5.97
2024-02-02T06:38:14.873Z,5.94
2024-02-02T06:39:14.930Z,5.93
2024-02-02T06:40:14.966Z,5.93
2024-02-02T06:41:15.087Z,5.90
2024-02-02T06:42:15.176Z,5.91
2024-02-02T06:43:15.239Z,5.90
2024-02-02T06:44:15.341Z,5.91
2024-02-02T06:45:15.419Z,5.91
2024-02-02T06:46:15.487Z,5.91
2024-02-02T06:47:15.596Z,5.90
2024-02-02T06:48:15.701Z,5.94
2024-02-02T06:49:15.817Z,5.94
2024-02-02T06:50:15.805Z,5.94
2024-02-02T06:51:15.958Z,5.94
2024-02-02T06:52:16.003Z,5.91
2024-02-02T06:53:16.098Z,5.90
2024-02-02T06:54:16.147Z,5.90
2024-02-02T06:55:16.370Z,5.91
2024-02-02T06:56:16.331Z,5.90
2024-02-02T06:57:16.407Z,5.89
2024-02-02T06:58:16.468Z,5.91
2024-02-02T06:59:16.541Z,5.97
2024-02-02T07:00:16.696Z,5.91
2024-02-02T07:01:16.698Z,5.90
2024-02-02T07:02:16.753Z,5.89
2024-02-02T07:03:16.978Z,5.89
2024-02-02T07:04:17.159Z,5.87
2024-02-02T07:05:17.024Z,5.91
2024-02-02T07:06:17.251Z,5.93
2024-02-02T07:07:17.327Z,5.90
2024-02-02T07:08:17.292Z,5.89
2024-02-02T07:09:17.397Z,5.86
2024-02-02T07:10:17.459Z,5.83
2024-02-02T07:11:17.532Z,5.83
2024-02-02T07:12:17.626Z,5.80
2024-02-02T07:13:17.752Z,5.75
2024-02-02T07:14:17.788Z,5.75
2024-02-02T07:15:18.027Z,5.76
2024-02-02T07:16:17.954Z,5.76
2024-02-02T07:17:18.048Z,5.73
2024-02-02T07:18:18.294Z,5.72
2024-02-02T07:19:18.345Z,5.72
2024-02-02T07:20:18.300Z,5.76
2024-02-02T07:21:18.444Z,5.84
2024-02-02T07:22:18.446Z,5.87
2024-02-02T07:24:33.077Z,5.90
2024-02-02T07:25:34.186Z,5.89
2024-02-02T07:26:34.212Z,5.87
2024-02-02T07:27:34.378Z,5.87
2024-02-02T07:28:34.791Z,5.87
2024-02-02T07:29:34.468Z,5.86
2024-02-02T07:30:34.619Z,5.89
2024-02-02T07:31:34.649Z,5.90
2024-02-02T07:32:34.719Z,5.91
2024-02-02T07:33:34.835Z,5.90
2024-02-02T07:34:35.076Z,5.90
2024-02-02T07:35:34.914Z,5.93
2024-02-02T07:36:35.192Z,5.93
2024-02-02T07:37:35.079Z,5.91
2024-02-02T07:38:35.184Z,5.93
2024-02-02T07:39:35.398Z,5.91
2024-02-02T07:40:35.325Z,5.91
2024-02-02T07:41:35.486Z,5.90
2024-02-02T07:42:47.536Z,5.89
2024-02-02T07:43:35.709Z,5.93
2024-02-02T07:44:35.708Z,5.93
2024-02-02T07:45:35.862Z,5.99
2024-02-02T07:46:35.910Z,6.02
2024-02-02T07:47:36.004Z,6.05
2024-02-02T07:48:36.151Z,6.11
2024-02-02T07:49:36.284Z,6.16
2024-02-02T07:50:36.260Z,6.22
2024-02-02T07:51:36.395Z,6.26
2024-02-02T07:52:36.379Z,6.28
2024-02-02T07:53:36.430Z,6.28
2024-02-02T07:54:36.603Z,6.31
2024-02-02T07:55:36.611Z,6.33
2024-02-02T07:56:36.702Z,6.31
2024-02-02T07:57:36.847Z,6.31
2024-02-02T07:58:36.935Z,6.31
2024-02-02T07:59:36.970Z,6.28
2024-02-02T08:00:37.212Z,6.30
2024-02-02T08:01:37.183Z,6.31
2024-02-02T08:02:37.235Z,6.30
2024-02-02T08:03:37.400Z,6.27
2024-02-02T08:04:37.515Z,6.27
2024-02-02T08:05:37.498Z,6.24
2024-02-02T08:06:37.700Z,6.27
2024-02-02T08:07:37.703Z,6.28
2024-02-02T08:08:37.951Z,6.30
2024-02-02T08:09:37.956Z,6.30
2024-02-02T08:10:37.915Z,6.28
2024-02-02T08:11:37.984Z,6.30
2024-02-02T08:12:38.139Z,6.30
2024-02-02T08:13:38.181Z,6.35
2024-02-02T08:14:38.249Z,6.35
2024-02-02T08:15:38.430Z,6.33
2024-02-02T08:16:38.522Z,6.35
2024-02-02T08:17:38.560Z,6.36
2024-02-02T08:18:38.798Z,6.38
2024-02-02T08:19:39.081Z,6.38
2024-02-02T08:20:38.780Z,6.38
2024-02-02T08:21:38.997Z,6.41
2024-02-02T08:22:38.945Z,6.44
2024-02-02T08:23:39.028Z,6.49
2024-02-02T08:24:39.141Z,6.54
2024-02-02T08:25:39.193Z,6.59
2024-02-02T08:26:39.255Z,6.64
2024-02-02T08:27:39.368Z,6.67
2024-02-02T08:28:45.664Z,6.70
2024-02-02T08:29:39.572Z,6.69
2024-02-02T08:30:39.710Z,6.69
2024-02-02T08:31:39.724Z,6.74
2024-02-02T08:32:39.866Z,6.75
2024-02-02T08:33:39.895Z,6.78
2024-02-02T08:34:39.995Z,6.79
2024-02-02T08:35:40.039Z,6.81
2024-02-02T08:36:40.137Z,6.84
2024-02-02T08:37:40.210Z,6.85
2024-02-02T08:38:40.289Z,6.87
2024-02-02T08:39:40.405Z,6.87
2024-02-02T08:40:40.491Z,6.85
2024-02-02T08:41:40.539Z,6.84
2024-02-02T08:42:40.737Z,6.88
2024-02-02T08:43:40.759Z,6.88
2024-02-02T08:44:40.819Z,6.87
2024-02-02T08:45:40.941Z,6.89
2024-02-02T08:46:40.973Z,6.93
2024-02-02T08:47:41.039Z,6.96
2024-02-02T08:48:41.202Z,7.00
2024-02-02T08:49:41.224Z,6.99
2024-02-02T08:50:41.282Z,6.97
2024-02-02T08:51:43.623Z,6.95
2024-02-02T08:52:41.496Z,6.95
2024-02-02T08:53:41.562Z,6.92
2024-02-02T08:54:41.921Z,6.92
2024-02-02T08:55:41.699Z,6.89
2024-02-02T08:56:41.802Z,6.95
2024-02-02T08:57:42.016Z,6.97
2024-02-02T08:58:41.956Z,7.03
2024-02-02T08:59:42.059Z,7.02
2024-02-02T09:00:42.315Z,7.02
2024-02-02T09:01:42.275Z,7.03
2024-02-02T09:02:42.317Z,7.10
2024-02-02T09:03:42.450Z,7.11
2024-02-02T09:04:42.514Z,7.18
2024-02-02T09:05:42.600Z,7.23
2024-02-02T09:06:42.754Z,7.28
2024-02-02T09:07:42.751Z,7.24
2024-02-02T09:08:42.819Z,7.29
2024-02-02T09:09:42.976Z,7.31
2024-02-02T09:10:42.968Z,7.28
2024-02-02T09:11:43.025Z,7.25
2024-02-02T09:12:43.158Z,7.28
2024-02-02T09:13:43.212Z,7.31
2024-02-02T09:14:43.376Z,7.31
2024-02-02T09:15:43.453Z,7.36
2024-02-02T09:16:43.488Z,7.35
2024-02-02T09:17:43.575Z,7.38
2024-02-02T09:18:43.620Z,7.32
2024-02-02T09:19:43.731Z,7.24
2024-02-02T09:20:44.068Z,7.20
2024-02-02T09:21:43.886Z,7.20
2024-02-02T09:22:43.941Z,7.23
2024-02-02T09:23:44.014Z,7.23
2024-02-02T09:24:44.264Z,7.23
2024-02-02T09:25:44.205Z,7.17
2024-02-02T09:26:44.250Z,7.18
2024-02-02T09:27:44.370Z,7.21
2024-02-02T09:28:44.469Z,7.23
2024-02-02T09:29:44.617Z,7.21
2024-02-02T09:30:44.676Z,7.15
2024-02-02T09:31:44.719Z,7.20
2024-02-02T09:32:45.225Z,7.20
2024-02-02T09:33:44.944Z,7.20
2024-02-02T09:34:45.001Z,7.21
2024-02-02T09:35:45.024Z,7.18
2024-02-02T09:36:45.128Z,7.21
2024-02-02T09:37:45.171Z,7.21
2024-02-02T09:38:45.247Z,7.23
2024-02-02T09:39:45.362Z,7.24
2024-02-02T09:40:45.384Z,7.28
2024-02-02T09:41:45.455Z,7.31
2024-02-02T09:42:45.548Z,7.36
2024-02-02T09:43:45.619Z,7.39
2024-02-02T09:44:45.692Z,7.40
2024-02-02T09:45:45.783Z,7.36
2024-02-02T09:46:45.854Z,7.32
2024-02-02T09:47:45.975Z,7.31
2024-02-02T09:48:46.094Z,7.31
2024-02-02T09:49:46.178Z,7.32
2024-02-02T09:50:46.162Z,7.31
2024-02-02T09:51:46.242Z,7.28
2024-02-02T09:52:46.361Z,7.24
2024-02-02T09:53:46.410Z,7.31
2024-02-02T09:54:46.484Z,7.38
2024-02-02T09:55:46.566Z,7.45
2024-02-02T09:56:46.618Z,7.42
2024-02-02T09:57:46.744Z,7.39
2024-02-02T09:58:46.802Z,7.38
2024-02-02T09:59:46.919Z,7.33
2024-02-02T10:00:47.039Z,7.38
2024-02-02T10:01:47.054Z,7.39
2024-02-02T10:02:47.171Z,7.38
2024-02-02T10:03:47.298Z,7.43
2024-02-02T10:04:47.402Z,7.50
2024-02-02T10:05:47.409Z,7.51
2024-02-02T10:06:47.548Z,7.53
2024-02-02T10:07:47.506Z,7.50
2024-02-02T10:08:47.614Z,7.51
2024-02-02T10:09:47.706Z,7.54
2024-02-02T10:10:47.779Z,7.50
2024-02-02T10:11:47.837Z,7.48
2024-02-02T10:12:47.948Z,7.50
2024-02-02T10:13:48.032Z,7.50
2024-02-02T10:14:48.075Z,7.47
2024-02-02T10:15:48.307Z,7.40
2024-02-02T10:16:48.251Z,7.39
2024-02-02T10:17:48.428Z,7.38
2024-02-02T10:18:48.673Z,7.32
2024-02-02T10:19:48.587Z,7.35
2024-02-02T10:20:48.600Z,7.38
2024-02-02T10:21:48.696Z,7.40
2024-02-02T10:22:48.820Z,7.43
2024-02-02T10:23:48.803Z,7.42
2024-02-02T10:24:48.933Z,7.40
2024-02-02T10:25:48.969Z,7.39
2024-02-02T10:26:49.057Z,7.39
2024-02-02T10:27:49.123Z,7.36
2024-02-02T10:28:49.241Z,7.36
2024-02-02T10:29:49.304Z,7.33
2024-02-02T10:30:49.365Z,7.31
2024-02-02T10:31:49.480Z,7.35
2024-02-02T10:32:49.584Z,7.33
2024-02-02T10:33:49.701Z,7.33
2024-02-02T10:34:49.727Z,7.33
2024-02-02T10:35:49.780Z,7.35
2024-02-02T10:36:49.847Z,7.36
2024-02-02T10:37:49.915Z,7.36
2024-02-02T10:38:50.057Z,7.33
2024-02-02T10:39:50.196Z,7.24
2024-02-02T10:40:50.195Z,7.21
2024-02-02T10:41:52.319Z,7.21
2024-02-02T10:42:50.396Z,7.18
2024-02-02T10:43:50.437Z,7.18
2024-02-02T10:44:50.510Z,7.18
2024-02-02T10:45:50.608Z,7.20
2024-02-02T10:46:50.705Z,7.23
2024-02-02T10:47:50.868Z,7.32
2024-02-02T10:48:50.965Z,7.40
2024-02-02T10:49:51.014Z,7.45
2024-02-02T10:50:50.987Z,7.51
2024-02-02T10:51:51.082Z,7.51
2024-02-02T10:52:51.156Z,7.47
2024-02-02T10:53:51.214Z,7.47
2024-02-02T10:54:51.282Z,7.48
2024-02-02T10:55:51.387Z,7.47
2024-02-02T10:56:51.500Z,7.43
2024-02-02T10:57:51.579Z,7.48
2024-02-02T10:58:51.631Z,7.53
2024-02-02T10:59:51.746Z,7.61
2024-02-02T11:00:51.910Z,7.67
2024-02-02T11:01:51.886Z,7.67
2024-02-02T11:02:51.964Z,7.66
2024-02-02T11:03:52.141Z,7.66
2024-02-02T11:04:52.145Z,7.66
2024-02-02T11:05:52.269Z,7.61
2024-02-02T11:06:52.432Z,7.61
2024-02-02T11:07:52.383Z,7.63
2024-02-02T11:08:52.434Z,7.57
2024-02-02T11:09:52.547Z,7.60
2024-02-02T11:10:52.623Z,7.67
2024-02-02T11:11:52.715Z,7.72
2024-02-02T11:12:52.770Z,7.67
2024-02-02T11:13:52.867Z,7.69
2024-02-02T11:14:52.953Z,7.75
2024-02-02T11:15:53.012Z,7.73
2024-02-02T11:16:53.101Z,7.73
2024-02-02T11:17:53.287Z,7.76
2024-02-02T11:18:53.390Z,7.83
2024-02-02T11:19:53.456Z,7.90
2024-02-02T11:20:53.477Z,7.93
2024-02-02T11:21:53.548Z,7.90
2024-02-02T11:22:53.601Z,7.83
2024-02-02T11:23:53.683Z,7.77
2024-02-02T11:24:53.785Z,7.77
2024-02-02T11:25:53.829Z,7.76
2024-02-02T11:26:53.906Z,7.77
2024-02-02T11:27:54.019Z,7.79
2024-02-02T11:28:54.092Z,7.77
2024-02-02T11:29:54.178Z,7.79
2024-02-02T11:30:54.234Z,7.76
2024-02-02T11:31:54.340Z,7.76
2024-02-02T11:32:54.506Z,7.76
2024-02-02T11:33:54.617Z,7.82
2024-02-02T11:34:54.588Z,7.80
2024-02-02T11:35:54.679Z,7.72
2024-02-02T11:36:54.720Z,7.72
2024-02-02T11:37:54.825Z,7.67
2024-02-02T11:38:54.911Z,7.66
2024-02-02T11:39:55.051Z,7.67
2024-02-02T11:40:55.059Z,7.70
2024-02-02T11:41:55.181Z,7.72
2024-02-02T11:42:55.215Z,7.70
2024-02-02T11:43:55.312Z,7.77
2024-02-02T11:44:55.468Z,7.80
2024-02-02T11:45:55.466Z,7.75
2024-02-02T11:46:55.517Z,7.80
2024-02-02T11:47:55.681Z,7.85
2024-02-02T11:48:55.794Z,7.88
2024-02-02T11:49:55.808Z,7.85
2024-02-02T11:50:55.916Z,7.90
2024-02-02T11:51:55.958Z,7.83
2024-02-02T11:52:56.017Z,7.83
2024-02-02T11:53:56.120Z,7.87
2024-02-02T11:54:56.170Z,7.82
2024-02-02T11:55:56.236Z,7.75
2024-02-02T11:56:56.417Z,7.77
2024-02-02T11:57:56.520Z,7.72
2024-02-02T11:58:56.541Z,7.72
2024-02-02T11:59:56.702Z,7.75
2024-02-02T12:00:56.715Z,7.79
2024-02-02T12:01:56.728Z,7.77
2024-02-02T12:02:56.919Z,7.75
2024-02-02T12:03:56.911Z,7.75
2024-02-02T12:04:57.044Z,7.76
2024-02-02T12:05:57.223Z,7.82
2024-02-02T12:06:57.298Z,7.85
2024-02-02T12:07:57.341Z,7.85
2024-02-02T12:08:57.428Z,7.85
2024-02-02T12:09:57.437Z,7.90
2024-02-02T12:10:57.504Z,7.93
2024-02-02T12:11:57.646Z,7.94
2024-02-02T12:12:57.665Z,7.91
2024-02-02T12:13:57.751Z,7.91
2024-02-02T12:14:57.898Z,7.91
2024-02-02T12:15:58.096Z,7.91
2024-02-02T12:16:57.996Z,7.95
2024-02-02T12:18:00.601Z,7.93
2024-02-02T12:18:58.271Z,7.95
2024-02-02T12:19:58.501Z,7.98
2024-02-02T12:20:58.372Z,8.01
2024-02-02T12:21:58.411Z,8.05
2024-02-02T12:22:58.473Z,8.05
2024-02-02T12:23:58.568Z,7.97
2024-02-02T12:24:58.596Z,7.97
2024-02-02T12:25:58.692Z,7.98
2024-02-02T12:26:58.816Z,8.00
2024-02-02T12:27:58.902Z,8.00
2024-02-02T12:28:58.967Z,7.97
2024-02-02T12:29:59.093Z,7.88
2024-02-02T12:30:59.092Z,7.83
2024-02-02T12:31:59.307Z,7.85
2024-02-02T12:32:59.422Z,7.93
2024-02-02T12:33:59.546Z,7.95
2024-02-02T12:34:59.654Z,7.95
2024-02-02T12:36:04.385Z,8.03
2024-02-02T12:36:59.714Z,7.97
2024-02-02T12:37:59.688Z,7.88
2024-02-02T12:38:59.767Z,7.88
2024-02-02T12:39:59.856Z,7.91
2024-02-02T12:40:59.931Z,7.91
2024-02-02T12:42:00.290Z,7.85
2024-02-02T12:43:00.074Z,7.85
2024-02-02T12:44:00.138Z,7.80
2024-02-02T12:45:00.300Z,7.83
2024-02-02T12:46:00.338Z,7.85
2024-02-02T12:47:00.435Z,7.85
2024-02-02T12:48:00.670Z,7.91
2024-02-02T12:49:00.752Z,7.91
2024-02-02T12:50:00.884Z,7.87
2024-02-02T12:51:00.811Z,7.85
2024-02-02T12:52:00.846Z,7.82
2024-02-02T12:53:00.948Z,7.88
2024-02-02T12:54:01.045Z,7.90
2024-02-02T12:55:01.096Z,7.94
2024-02-02T12:56:01.198Z,7.97
2024-02-02T12:57:01.299Z,7.98
2024-02-02T12:58:01.386Z,7.94
2024-02-02T12:59:01.416Z,7.97
2024-02-02T13:00:01.548Z,7.95
2024-02-02T13:01:01.661Z,7.90
2024-02-02T13:02:01.695Z,7.87
2024-02-02T13:03:01.903Z,7.88
2024-02-02T13:04:02.078Z,7.90
2024-02-02T13:05:01.980Z,7.88
2024-02-02T13:06:02.060Z,7.93
2024-02-02T13:07:02.264Z,7.94
2024-02-02T13:08:02.176Z,7.95
2024-02-02T13:09:02.239Z,7.97
2024-02-02T13:10:02.303Z,8.00
2024-02-02T13:11:02.364Z,7.98
2024-02-02T13:12:02.804Z,7.98
2024-02-02T13:13:02.559Z,7.98
2024-02-02T13:14:02.714Z,8.00
2024-02-02T13:15:02.726Z,8.01
2024-02-02T13:16:02.849Z,8.00
2024-02-02T13:17:02.936Z,8.00
2024-02-02T13:18:03.079Z,8.03
2024-02-02T13:19:04.565Z,8.03
2024-02-02T13:20:03.114Z,8.03
2024-02-02T13:21:03.203Z,8.05